Time;durP1;ratioP1;P1;durP2;ratioP2;P2;SDS_P1;SDS_P2;PMS_P1;PMS_P2;Temp;Humidity;BMP_temperature;BMP_pressure;BME280_temperature;BME280_humidity;BME280_pressure;Samples;Min_cycle;Max_cycle;Signal;HPM_P1;HPM_P2
2023/05/01 00:02:19;;;;;;;0.13;0.13;;;9.10;97.90;;;;;;6213491;23;20034;-84
2023/05/01 00:04:45;;;;;;;0.10;0.10;;;9.10;98.00;;;;;;6240845;23;20020;-84
2023/05/01 00:07:14;;;;;;;0.20;0.20;;;9.80;98.20;;;;;;6236585;23;20078;-84
2023/05/01 00:09:56;;;;;;;0.20;0.20;;;9.00;98.20;;;;;;6242027;23;20023;-84
2023/05/01 00:12:28;;;;;;;0.20;0.20;;;9.80;98.30;;;;;;6259733;22;20257;-85
2023/05/01 00:14:54;;;;;;;0.10;0.10;;;9.00;98.10;;;;;;6271292;22;20091;-85
2023/05/01 00:17:23;;;;;;;0.20;0.20;;;8.90;98.40;;;;;;6250904;23;20016;-84
2023/05/01 00:19:53;;;;;;;0.10;0.10;;;9.00;98.20;;;;;;6243459;22;20028;-84
2023/05/01 00:22:33;;;;;;;0.20;0.20;;;9.00;98.30;;;;;;6242036;22;20012;-84
2023/05/01 00:25:06;;;;;;;0.20;0.20;;;8.90;98.40;;;;;;6240006;23;20063;-84
2023/05/01 00:27:40;;;;;;;0.20;0.20;;;8.90;98.50;;;;;;6241238;23;20445;-84
2023/05/01 00:33:35;;;;;;;0.20;0.20;;;8.90;98.50;;;;;;6126229;23;20034;-85
2023/05/01 00:36:22;;;;;;;0.10;0.10;;;8.80;98.50;;;;;;6205761;23;20377;-84
2023/05/01 00:39:01;;;;;;;0.20;0.20;;;8.70;98.90;;;;;;6245128;23;20044;-85
2023/05/01 00:41:38;;;;;;;0.20;0.20;;;8.80;98.70;;;;;;6242038;22;20008;-84
2023/05/01 00:44:04;;;;;;;0.15;0.15;;;8.70;98.80;;;;;;6239883;23;20020;-84
2023/05/01 00:46:32;;;;;;;0.20;0.20;;;8.70;98.80;;;;;;6237383;23;20467;-84
2023/05/01 00:49:14;;;;;;;0.20;0.20;;;8.70;98.90;;;;;;6239831;23;20020;-84
2023/05/01 00:51:45;;;;;;;0.20;0.20;;;9.50;99.20;;;;;;6239767;23;20027;-84
2023/05/01 00:54:18;;;;;;;0.20;0.20;;;9.00;99.10;;;;;;6237642;23;20074;-84
2023/05/01 00:56:45;;;;;;;0.20;0.20;;;9.10;99.20;;;;;;6241939;22;20511;-84
2023/05/01 00:59:42;;;;;;;0.20;0.20;;;8.60;99.20;;;;;;6237197;23;20087;-84
2023/05/01 01:02:08;;;;;;;0.20;0.20;;;8.50;99.20;;;;;;6240615;23;20027;-84
2023/05/01 01:04:42;;;;;;;0.20;0.20;;;8.50;99.30;;;;;;6243208;23;20012;-85
2023/05/01 01:07:46;;;;;;;0.20;0.20;;;8.50;99.40;;;;;;6238703;23;20020;-84
2023/05/01 01:10:54;;;;;;;0.10;0.10;;;8.40;99.50;;;;;;6239753;23;20062;-83
2023/05/01 01:13:55;;;;;;;0.10;0.10;;;8.40;99.70;;;;;;6241593;22;20020;-84
2023/05/01 01:17:11;;;;;;;0.20;0.20;;;8.40;99.70;;;;;;6245171;23;20059;-84
2023/05/01 01:19:58;;;;;;;0.20;0.20;;;7.60;99.60;;;;;;6240506;23;20031;-84
2023/05/01 01:23:14;;;;;;;0.10;0.10;;;8.30;99.90;;;;;;6241448;23;20031;-84
2023/05/01 01:26:00;;;;;;;0.20;0.20;;;7.60;99.80;;;;;;6149697;23;20018;-83
2023/05/01 01:29:02;;;;;;;0.20;0.20;;;8.30;99.90;;;;;;6124611;23;20085;-84
2023/05/01 01:32:14;;;;;;;0.20;0.20;;;8.30;99.90;;;;;;6147305;23;20021;-84
2023/05/01 01:34:44;;;;;;;;;;;8.20;99.90;;;;;;6215804;22;20032;-83
2023/05/01 01:37:57;;;;;;;0.10;0.10;;;8.20;99.90;;;;;;6241540;23;19923;-83
2023/05/01 01:40:55;;;;;;;0.15;0.15;;;7.50;99.90;;;;;;6243158;23;20074;-83
2023/05/01 01:43:51;;;;;;;0.20;0.20;;;8.20;99.90;;;;;;6241264;23;20020;-82
2023/05/01 01:46:31;;;;;;;0.20;0.20;;;8.10;99.90;;;;;;6242651;23;20012;-84
2023/05/01 01:49:08;;;;;;;0.20;0.20;;;8.20;99.90;;;;;;6216982;23;20027;-84
2023/05/01 01:51:55;;;;;;;0.15;0.15;;;8.10;99.90;;;;;;6241498;23;20020;-83
2023/05/01 01:54:49;;;;;;;0.20;0.20;;;8.90;99.90;;;;;;6218850;23;20020;-84
2023/05/01 01:57:25;;;;;;;0.20;0.20;;;8.00;99.90;;;;;;6234403;22;20004;-84
2023/05/01 01:59:55;;;;;;;0.20;0.20;;;8.10;99.90;;;;;;6258986;23;20027;-84
2023/05/01 02:02:30;;;;;;;0.20;0.20;;;8.00;99.90;;;;;;6253438;23;20031;-84
2023/05/01 02:08:59;;;;;;;0.20;0.20;;;8.00;99.90;;;;;;6239617;23;20022;-83
2023/05/01 02:11:48;;;;;;;0.20;0.20;;;8.00;99.90;;;;;;6239213;23;20020;-83
2023/05/01 02:14:39;;;;;;;0.20;0.20;;;8.10;99.90;;;;;;6239052;23;20020;-84
2023/05/01 02:17:06;;;;;;;0.20;0.20;;;7.40;99.90;;;;;;6213429;23;20030;-83
2023/05/01 02:19:39;;;;;;;0.20;0.20;;;8.30;99.90;;;;;;6215105;23;20077;-84
2023/05/01 02:22:15;;;;;;;0.10;0.10;;;8.10;99.90;;;;;;6242248;23;20027;-84
2023/05/01 02:24:51;;;;;;;0.20;0.20;;;8.10;99.90;;;;;;6211874;23;20024;-83
2023/05/01 02:27:47;;;;;;;0.20;0.20;;;8.10;99.90;;;;;;6238842;23;20103;-84
2023/05/01 02:30:25;;;;;;;0.17;0.17;;;8.10;99.90;;;;;;6210599;23;20032;-83
2023/05/01 02:32:51;;;;;;;0.17;0.17;;;8.10;99.90;;;;;;6213611;23;20012;-84
2023/05/01 02:35:17;;;;;;;0.20;0.20;;;8.90;99.90;;;;;;6213979;23;20097;-84
2023/05/01 02:37:46;;;;;;;0.20;0.20;;;8.10;99.90;;;;;;6238104;23;20028;-83
2023/05/01 02:40:32;;;;;;;0.20;0.20;;;8.10;99.90;;;;;;6215599;23;20067;-84
2023/05/01 02:43:02;;;;;;;0.20;0.20;;;8.00;99.90;;;;;;6214103;23;20027;-83
2023/05/01 02:45:29;;;;;;;0.20;0.20;;;8.70;99.90;;;;;;6212156;23;20028;-83
2023/05/01 02:47:58;;;;;;;0.20;0.20;;;8.80;99.90;;;;;;6215020;23;20452;-84
2023/05/01 02:50:40;;;;;;;0.20;0.20;;;8.90;99.90;;;;;;6213659;23;20025;-84
2023/05/01 02:53:07;;;;;;;0.20;0.20;;;8.00;99.90;;;;;;6242026;23;20013;-84
2023/05/01 02:55:36;;;;;;;0.20;0.20;;;8.00;99.90;;;;;;6213937;23;20020;-84
2023/05/01 02:58:02;;;;;;;0.13;0.13;;;8.00;99.90;;;;;;6240800;23;20020;-84
2023/05/01 03:00:31;;;;;;;0.20;0.20;;;8.00;99.90;;;;;;6240744;23;20492;-84
2023/05/01 03:02:58;;;;;;;0.20;0.20;;;8.60;99.90;;;;;;6215462;23;20035;-84
2023/05/01 03:05:29;;;;;;;0.17;0.17;;;7.90;99.90;;;;;;6215170;23;20020;-85
2023/05/01 03:08:21;;;;;;;0.20;0.20;;;8.00;99.90;;;;;;6240955;23;20023;-83
2023/05/01 03:10:59;;;;;;;0.20;0.20;;;8.50;99.90;;;;;;6182458;23;20142;-84
2023/05/01 03:13:34;;;;;;;0.20;0.20;;;7.90;99.90;;;;;;6214081;23;20016;-83
2023/05/01 03:16:06;;;;;;;0.20;0.20;;;7.60;99.90;;;;;;6213923;23;20016;-84
2023/05/01 03:18:41;;;;;;;0.20;0.20;;;7.90;99.90;;;;;;6240996;23;20341;-84
2023/05/01 03:21:07;;;;;;;0.20;0.20;;;7.80;99.90;;;;;;6213624;23;20527;-84
2023/05/01 03:23:38;;;;;;;0.20;0.20;;;7.90;99.90;;;;;;6217538;23;20019;-84
2023/05/01 03:26:04;;;;;;;;;;;6.90;99.90;;;;;;6219862;23;20349;-84
2023/05/01 03:28:30;;;;;;;0.20;0.20;;;7.80;99.90;;;;;;6215332;23;19919;-84
2023/05/01 03:30:56;;;;;;;0.20;0.20;;;7.80;99.90;;;;;;6214042;23;20016;-84
2023/05/01 03:33:27;;;;;;;0.20;0.20;;;8.00;99.90;;;;;;6217406;23;20024;-84
2023/05/01 03:36:10;;;;;;;0.20;0.20;;;7.50;99.90;;;;;;6241848;23;20127;-84
2023/05/01 03:38:36;;;;;;;0.20;0.20;;;7.70;99.90;;;;;;6253291;23;20012;-84
2023/05/01 03:41:04;;;;;;;0.20;0.20;;;7.60;99.90;;;;;;6244992;22;20031;-85
2023/05/01 03:43:32;;;;;;;0.10;0.10;;;7.70;99.90;;;;;;6268255;22;20081;-85
2023/05/01 03:46:01;;;;;;;0.20;0.20;;;7.60;99.90;;;;;;6225046;23;20020;-84
2023/05/01 03:48:27;;;;;;;0.20;0.20;;;7.40;99.90;;;;;;6248205;23;20409;-84
2023/05/01 03:50:54;;;;;;;0.20;0.20;;;7.60;99.90;;;;;;6217615;23;20076;-84
2023/05/01 03:53:43;;;;;;;0.20;0.20;;;7.60;99.90;;;;;;6245009;23;20023;-84
2023/05/01 03:56:34;;;;;;;0.20;0.20;;;8.30;99.90;;;;;;6199142;23;20019;-84
2023/05/01 03:59:56;;;;;;;0.20;0.20;;;7.50;99.90;;;;;;6214701;23;20070;-84
2023/05/01 04:02:46;;;;;;;0.20;0.20;;;7.10;99.90;;;;;;6241520;23;20178;-84
2023/05/01 04:05:12;;;;;;;0.20;0.20;;;7.50;99.90;;;;;;6245331;22;20019;-84
2023/05/01 04:07:39;;;;;;;0.20;0.20;;;;;;;;;;6250360;22;20023;-83
2023/05/01 04:10:13;;;;;;;0.20;0.20;;;7.50;99.90;;;;;;6270707;22;20104;-84
2023/05/01 04:12:38;;;;;;;0.20;0.20;;;7.40;99.90;;;;;;6272125;22;20031;-83
2023/05/01 04:15:17;;;;;;;0.20;0.20;;;7.50;99.90;;;;;;6271992;22;20008;-84
2023/05/01 04:17:55;;;;;;;0.20;0.20;;;7.20;99.90;;;;;;6270556;22;20090;-84
2023/05/01 04:20:40;;;;;;;0.20;0.20;;;7.40;99.90;;;;;;6272813;22;20604;-83
2023/05/01 04:23:20;;;;;;;0.20;0.20;;;5.90;99.90;;;;;;6274274;22;20050;-83
2023/05/01 04:25:46;;;;;;;0.20;0.20;;;6.50;99.90;;;;;;6244310;22;20160;-84
2023/05/01 04:28:18;;;;;;;0.20;0.20;;;8.60;99.90;;;;;;6245694;22;20047;-83
2023/05/01 04:30:47;;;;;;;0.20;0.20;;;7.30;99.90;;;;;;6271552;22;20020;-83
2023/05/01 04:33:13;;;;;;;0.20;0.20;;;7.30;99.90;;;;;;6248441;22;20012;-83
2023/05/01 04:35:44;;;;;;;0.20;0.20;;;4.70;99.90;;;;;;6242935;22;20047;-83
2023/05/01 04:38:29;;;;;;;0.20;0.20;;;8.30;99.90;;;;;;6246229;22;20051;-83
2023/05/01 04:40:55;;;;;;;0.20;0.20;;;7.90;99.90;;;;;;6246840;22;20027;-84
2023/05/01 04:43:38;;;;;;;0.20;0.20;;;7.30;99.90;;;;;;6246182;22;20047;-84
2023/05/01 04:46:11;;;;;;;0.20;0.20;;;7.40;99.90;;;;;;6244782;22;20108;-84
2023/05/01 04:48:37;;;;;;;0.20;0.20;;;;;;;;;;6277413;22;20097;-84
2023/05/01 04:51:06;;;;;;;0.15;0.15;;;7.40;99.90;;;;;;6247813;22;20027;-84
2023/05/01 04:53:31;;;;;;;0.20;0.20;;;7.40;99.90;;;;;;6246039;22;20016;-83
2023/05/01 04:56:09;;;;;;;0.20;0.20;;;7.40;99.90;;;;;;6273525;22;20365;-83
2023/05/01 04:58:44;;;;;;;0.20;0.20;;;7.60;99.90;;;;;;6247265;22;20095;-82
2023/05/01 05:01:10;;;;;;;0.20;0.20;;;7.10;99.90;;;;;;6272604;22;20495;-83
2023/05/01 05:03:38;;;;;;;0.20;0.20;;;8.20;99.90;;;;;;6247483;22;20016;-83
2023/05/01 05:06:04;;;;;;;0.20;0.20;;;7.60;99.90;;;;;;6233133;23;20035;-84
2023/05/01 05:08:30;;;;;;;0.20;0.20;;;7.60;99.90;;;;;;6218192;23;20024;-83
2023/05/01 05:13:47;;;;;;;0.20;0.20;;;7.70;99.90;;;;;;6241197;22;20028;-83
2023/05/01 05:16:13;;;;;;;0.10;0.10;;;7.80;99.90;;;;;;6251791;23;20016;-84
2023/05/01 05:18:41;;;;;;;0.20;0.20;;;7.90;99.90;;;;;;6237230;23;20068;-84
2023/05/01 05:21:10;;;;;;;0.20;0.20;;;7.90;99.90;;;;;;6218806;23;20024;-83
2023/05/01 05:23:39;;;;;;;0.20;0.20;;;8.00;99.90;;;;;;6262799;23;20015;-84
2023/05/01 05:26:05;;;;;;;0.20;0.20;;;8.10;99.90;;;;;;6240334;23;20016;-83
2023/05/01 05:28:31;;;;;;;0.20;0.20;;;8.50;99.90;;;;;;6253337;23;20051;-83
2023/05/01 05:30:57;;;;;;;0.20;0.20;;;8.20;99.90;;;;;;6218896;23;20020;-84
2023/05/01 05:33:39;;;;;;;0.20;0.20;;;8.20;99.90;;;;;;6245892;23;20043;-83
2023/05/01 05:36:23;;;;;;;0.20;0.20;;;8.30;99.90;;;;;;6214307;23;20065;-84
2023/05/01 05:38:49;;;;;;;0.20;0.20;;;8.40;99.90;;;;;;6213739;23;20051;-84
2023/05/01 05:41:20;;;;;;;0.20;0.20;;;8.40;99.90;;;;;;6240920;23;20306;-84
2023/05/01 05:43:49;;;;;;;0.25;0.25;;;9.30;99.90;;;;;;6241094;23;20115;-83
2023/05/01 05:46:15;;;;;;;0.20;0.20;;;8.50;99.90;;;;;;6238276;23;20023;-84
2023/05/01 05:48:43;;;;;;;0.20;0.20;;;8.10;99.90;;;;;;6240960;23;20027;-84
2023/05/01 05:51:18;;;;;;;0.10;0.10;;;8.20;99.90;;;;;;6213353;23;20028;-84
2023/05/01 05:54:05;;;;;;;0.20;0.20;;;8.60;99.90;;;;;;6243241;23;20436;-84
2023/05/01 05:56:34;;;;;;;0.10;0.10;;;8.80;99.90;;;;;;6213421;23;20103;-83
2023/05/01 05:59:02;;;;;;;0.20;0.20;;;8.80;99.90;;;;;;6242525;23;20047;-85
2023/05/01 06:01:28;;;;;;;0.10;0.10;;;8.90;99.90;;;;;;6239658;23;20020;-85
2023/05/01 06:04:12;;;;;;;0.10;0.10;;;9.00;99.90;;;;;;6242075;23;20039;-84
2023/05/01 06:06:44;;;;;;;0.20;0.20;;;9.00;99.90;;;;;;6216086;23;20391;-84
2023/05/01 06:09:11;;;;;;;0.20;0.20;;;9.10;99.90;;;;;;6214955;23;20020;-86
2023/05/01 06:11:37;;;;;;;0.20;0.20;;;10.00;99.90;;;;;;6241609;23;20515;-86
2023/05/01 06:14:03;;;;;;;0.20;0.20;;;9.60;99.90;;;;;;6248702;23;20021;-84
2023/05/01 06:16:38;;;;;;;0.20;0.20;;;9.10;99.90;;;;;;6241754;23;20433;-85
2023/05/01 06:19:14;;;;;;;0.20;0.20;;;9.90;99.90;;;;;;6236307;23;20031;-86
2023/05/01 06:21:46;;;;;;;0.20;0.20;;;10.10;99.90;;;;;;6243278;23;20139;-86
2023/05/01 06:24:12;;;;;;;0.20;0.20;;;8.80;99.90;;;;;;6213861;23;20023;-86
2023/05/01 06:26:37;;;;;;;0.20;0.20;;;9.30;99.90;;;;;;6214329;23;20016;-87
2023/05/01 06:29:03;;;;;;;0.10;0.10;;;8.80;99.90;;;;;;6214801;23;20066;-85
2023/05/01 06:31:34;;;;;;;0.20;0.20;;;9.50;99.90;;;;;;6213521;23;20027;-86
2023/05/01 06:34:18;;;;;;;0.20;0.20;;;10.00;99.90;;;;;;6216738;23;20089;-85
2023/05/01 06:36:47;;;;;;;0.20;0.20;;;10.20;99.90;;;;;;6242806;23;20026;-85
2023/05/01 06:39:13;;;;;;;0.20;0.20;;;9.60;99.90;;;;;;6241473;23;20071;-85
2023/05/01 06:41:45;;;;;;;0.20;0.20;;;9.70;99.90;;;;;;6215814;23;20024;-85
2023/05/01 06:44:25;;;;;;;0.10;0.10;;;9.70;99.90;;;;;;6173878;23;20131;-87
2023/05/01 06:47:10;;;;;;;0.20;0.20;;;9.80;99.90;;;;;;6203862;23;20018;-86
2023/05/01 06:49:42;;;;;;;0.15;0.15;;;9.80;99.90;;;;;;6215720;23;20056;-86
2023/05/01 06:52:11;;;;;;;0.30;0.30;;;9.90;99.90;;;;;;6223335;23;20016;-87
2023/05/01 06:54:38;;;;;;;0.20;0.20;;;9.90;99.90;;;;;;6263811;23;20030;-88
2023/05/01 06:57:04;;;;;;;0.20;0.20;;;10.00;99.90;;;;;;6238904;23;20024;-87
2023/05/01 06:59:29;;;;;;;0.20;0.20;;;10.00;99.90;;;;;;6231942;22;20621;-85
2023/05/01 07:02:16;;;;;;;0.20;0.20;;;10.00;99.90;;;;;;6188509;23;20021;-86
2023/05/01 07:04:52;;;;;;;0.20;0.20;;;10.10;99.90;;;;;;6191675;23;20072;-84
2023/05/01 07:07:17;;;;;;;0.20;0.20;;;10.20;99.90;;;;;;6238392;23;20020;-85
2023/05/01 07:09:43;;;;;;;0.10;0.10;;;10.20;99.90;;;;;;6215397;23;20358;-85
2023/05/01 07:12:09;;;;;;;0.20;0.20;;;10.30;99.90;;;;;;6191022;23;20038;-87
2023/05/01 07:14:44;;;;;;;0.20;0.20;;;10.40;99.90;;;;;;6208531;23;20075;-84
2023/05/01 07:17:22;;;;;;;0.20;0.20;;;10.90;99.90;;;;;;6184637;23;20020;-85
2023/05/01 07:20:07;;;;;;;0.20;0.20;;;10.80;99.90;;;;;;6183552;23;20016;-85
2023/05/01 07:22:33;;;;;;;0.20;0.20;;;10.40;99.90;;;;;;6211721;23;20032;-87
2023/05/01 07:25:14;;;;;;;0.20;0.20;;;10.70;99.90;;;;;;6184302;23;20013;-84
2023/05/01 07:28:06;;;;;;;;;;;;;;;;;;;;;
2023/05/01 07:31:06;;;;;;;0.17;0.17;;;10.60;99.90;;;;;;6111312;23;19927;-85
2023/05/01 07:33:44;;;;;;;0.20;0.20;;;10.70;99.90;;;;;;6184596;23;20027;-91
2023/05/01 07:37:03;;;;;;;0.10;0.10;;;10.70;99.90;;;;;;6184813;23;20528;-88
2023/05/01 07:39:41;;;;;;;0.20;0.20;;;11.00;99.90;;;;;;6018663;23;20126;-88
2023/05/01 07:42:16;;;;;;;0.10;0.10;;;10.90;99.90;;;;;;6090373;23;20121;-85
2023/05/01 07:45:01;;;;;;;0.10;0.10;;;11.00;99.90;;;;;;6065208;23;20030;-85
2023/05/01 07:47:32;;;;;;;0.20;0.20;;;11.10;99.90;;;;;;6067054;23;20026;-86
2023/05/01 07:53:29;;;;;;;0.10;0.10;;;11.30;99.90;;;;;;6091769;23;20104;-86
2023/05/01 07:56:16;;;;;;;0.20;0.20;;;11.20;99.90;;;;;;6088914;23;20097;-85
2023/05/01 07:59:06;;;;;;;0.10;0.10;;;11.30;99.90;;;;;;6067299;23;20103;-86
2023/05/01 08:01:50;;;;;;;0.15;0.15;;;11.70;99.90;;;;;;6087318;23;20071;-83
2023/05/01 08:07:53;;;;;;;0.20;0.20;;;11.90;99.90;;;;;;6092020;23;20037;-86
2023/05/01 08:10:27;;;;;;;0.20;0.20;;;12.00;99.90;;;;;;6095566;23;20093;-85
2023/05/01 08:13:38;;;;;;;0.17;0.17;;;12.20;99.90;;;;;;6069451;23;20054;-86
2023/05/01 08:28:28;;;;;;;0.20;0.20;;;12.70;98.70;;;;;;6220102;22;20023;-86
2023/05/01 08:30:53;;;;;;;0.10;0.10;;;12.70;98.30;;;;;;6204568;23;20017;-86
2023/05/01 08:34:03;;;;;;;0.13;0.13;;;12.80;98.40;;;;;;6190350;22;20028;-87
2023/05/01 08:36:30;;;;;;;0.20;0.20;;;12.50;98.30;;;;;;6190260;23;20021;-87
2023/05/01 08:39:11;;;;;;;0.20;0.20;;;13.00;98.40;;;;;;6217943;23;20268;-89
2023/05/01 08:41:47;;;;;;;0.20;0.20;;;13.00;98.20;;;;;;6208585;23;20017;-88
2023/05/01 08:44:29;;;;;;;0.20;0.20;;;13.10;98.30;;;;;;6200596;23;20017;-87
2023/05/01 08:47:42;;;;;;;0.10;0.10;;;13.30;97.80;;;;;;6194008;23;20020;-80
2023/05/01 08:50:25;;;;;;;0.20;0.20;;;13.50;97.20;;;;;;6213641;23;20035;-87
2023/05/01 08:53:01;;;;;;;0.20;0.20;;;13.40;97.30;;;;;;6239184;23;20016;-88
2023/05/01 08:59:00;;;;;;;0.20;0.20;;;13.60;96.90;;;;;;6187775;23;20103;-89
2023/05/01 09:01:27;;;;;;;0.13;0.13;;;13.80;96.80;;;;;;6190366;23;20021;-91
2023/05/01 09:03:53;;;;;;;0.20;0.20;;;13.90;96.60;;;;;;6197338;23;20017;-84
2023/05/01 09:06:20;;;;;;;0.20;0.20;;;13.90;96.80;;;;;;6199659;23;20020;-90
2023/05/01 09:08:48;;;;;;;0.20;0.20;;;14.00;96.70;;;;;;6190882;23;20623;-89
2023/05/01 09:11:14;;;;;;;0.10;0.10;;;14.10;96.10;;;;;;6218756;23;20024;-90
2023/05/01 09:13:39;;;;;;;0.10;0.10;;;14.10;96.10;;;;;;6218005;23;20019;-88
2023/05/01 09:16:11;;;;;;;0.10;0.10;;;14.20;96.00;;;;;;6218691;23;20016;-90
2023/05/01 09:18:38;;;;;;;0.10;0.10;;;14.20;96.10;;;;;;6196801;23;20140;-88
2023/05/01 09:21:05;;;;;;;0.10;0.10;;;14.30;96.00;;;;;;6189813;23;20021;-89
2023/05/01 09:23:31;;;;;;;0.10;0.10;;;14.40;96.10;;;;;;6217648;23;20009;-91
2023/05/01 09:25:59;;;;;;;0.20;0.20;;;14.50;96.00;;;;;;6193509;23;20060;-91
2023/05/01 09:28:44;;;;;;;0.10;0.10;;;14.60;95.90;;;;;;6195724;23;20400;-90
2023/05/01 09:31:21;;;;;;;0.13;0.13;;;14.70;95.80;;;;;;6192139;23;20020;-90
2023/05/01 09:33:58;;;;;;;0.20;0.20;;;14.70;95.10;;;;;;6194349;23;20017;-91
2023/05/01 09:36:27;;;;;;;0.20;0.20;;;14.80;95.20;;;;;;6192580;23;20028;-92
2023/05/01 09:38:53;;;;;;;0.10;0.10;;;14.80;95.20;;;;;;6218769;23;20070;-93
2023/05/01 09:41:22;;;;;;;0.20;0.20;;;14.90;95.20;;;;;;6191756;23;20405;-91
2023/05/01 09:44:16;;;;;;;0.20;0.20;;;15.00;95.40;;;;;;6193642;23;20588;-93
2023/05/01 10:12:43;;;;;;;0.17;0.17;;;15.60;92.80;;;;;;6282977;22;20027;-94
2023/05/01 10:19:04;;;;;;;0.10;0.10;;;16.10;93.00;;;;;;6286411;22;20336;-90
2023/05/01 10:31:55;;;;;;;0.13;0.13;;;16.20;92.40;;;;;;6279113;22;20012;-90
2023/05/01 10:35:10;;;;;;;;;;;;;;;;;;;;;
2023/05/01 10:56:35;;;;;;;0.10;0.10;;;17.00;91.90;;;;;;6123885;23;20021;-91
2023/05/01 11:05:54;;;;;;;0.10;0.10;;;17.50;92.70;;;;;;6221872;22;20084;-93
2023/05/01 11:08:46;;;;;;;0.20;0.20;;;17.60;92.90;;;;;;6191127;23;20107;-93
2023/05/01 11:11:46;;;;;;;0.20;0.20;;;17.90;92.00;;;;;;6200218;22;20016;-90
2023/05/01 11:29:00;;;;;;;0.20;0.20;;;18.30;91.30;;;;;;6278773;22;20027;-94
2023/05/01 11:35:39;;;;;;;0.20;0.20;;;18.40;91.00;;;;;;6278607;22;20034;-92
2023/05/01 11:38:25;;;;;;;0.15;0.15;;;18.60;91.50;;;;;;6270865;22;20011;-86
2023/05/01 11:47:54;;;;;;;0.10;0.10;;;19.10;90.00;;;;;;6149915;22;20012;-90
2023/05/01 11:50:45;;;;;;;0.10;0.10;;;19.10;90.60;;;;;;6292668;22;20019;-87
2023/05/01 11:53:31;;;;;;;0.17;0.17;;;19.30;91.20;;;;;;6244884;22;20016;-93
2023/05/01 11:56:00;;;;;;;0.20;0.20;;;19.50;91.10;;;;;;6290081;22;20038;-89
2023/05/01 12:02:25;;;;;;;0.20;0.20;;;19.90;91.20;;;;;;6279039;22;20076;-91
2023/05/01 12:05:29;;;;;;;0.10;0.10;;;20.20;90.50;;;;;;6252033;22;20015;-89
2023/05/01 12:08:17;;;;;;;0.20;0.20;;;20.20;90.40;;;;;;6277247;22;20016;-89
2023/05/01 12:10:45;;;;;;;0.10;0.10;;;20.40;89.50;;;;;;6295140;22;20008;-88
2023/05/01 12:13:13;;;;;;;0.17;0.17;;;20.10;88.50;;;;;;6302948;22;20039;-89
2023/05/01 12:15:55;;;;;;;0.20;0.20;;;20.00;88.20;;;;;;6250459;22;20024;-89
2023/05/01 12:18:23;;;;;;;0.10;0.10;;;19.90;88.10;;;;;;6275083;22;20359;-86
2023/05/01 12:20:52;;;;;;;0.10;0.10;;;19.90;88.60;;;;;;6248289;22;20448;-87
2023/05/01 12:23:49;;;;;;;0.10;0.10;;;20.00;88.40;;;;;;6272916;22;20087;-89
2023/05/01 12:26:24;;;;;;;0.20;0.20;;;20.00;87.60;;;;;;6274010;22;20019;-89
2023/05/01 12:29:12;;;;;;;0.20;0.20;;;20.10;88.50;;;;;;6272616;22;20023;-92
2023/05/01 12:32:15;;;;;;;0.20;0.20;;;20.30;87.10;;;;;;6250174;22;20019;-92
2023/05/01 12:34:53;;;;;;;0.10;0.10;;;20.40;87.40;;;;;;6247997;22;20467;-90
2023/05/01 12:37:39;;;;;;;0.20;0.20;;;20.40;86.90;;;;;;6267265;22;20020;-93
2023/05/01 12:40:11;;;;;;;0.15;0.15;;;20.40;87.10;;;;;;6263636;22;20024;-91
2023/05/01 12:42:56;;;;;;;0.20;0.20;;;20.40;86.50;;;;;;6277134;22;20054;-90
2023/05/01 12:45:23;;;;;;;0.20;0.20;;;20.30;85.50;;;;;;6275848;22;20012;-90
2023/05/01 12:47:52;;;;;;;0.20;0.20;;;20.30;84.80;;;;;;6249030;22;20379;-88
2023/05/01 12:50:53;;;;;;;0.10;0.10;;;20.20;84.80;;;;;;6273694;22;20011;-89
2023/05/01 12:57:36;;;;;;;0.20;0.20;;;20.50;86.20;;;;;;6229894;23;20026;-87
2023/05/01 13:00:53;;;;;;;0.20;0.20;;;20.40;86.00;;;;;;6217606;23;20020;-91
2023/05/01 13:08:05;;;;;;;0.20;0.20;;;20.20;83.90;;;;;;6127748;23;20609;-89
2023/05/01 13:10:43;;;;;;;0.20;0.20;;;20.20;84.80;;;;;;6082594;22;20595;-89
2023/05/01 13:14:02;;;;;;;0.20;0.20;;;20.10;83.80;;;;;;6255331;23;20055;-88
2023/05/01 13:16:31;;;;;;;0.10;0.10;;;19.90;83.20;;;;;;6153947;23;20092;-89
2023/05/01 13:18:57;;;;;;;0.20;0.20;;;19.70;82.60;;;;;;6145556;23;20021;-89
2023/05/01 13:22:09;;;;;;;0.20;0.20;;;19.50;81.70;;;;;;6152415;23;20031;-88
2023/05/01 13:24:54;;;;;;;0.10;0.10;;;19.30;83.00;;;;;;6127730;23;20425;-88
2023/05/01 13:27:34;;;;;;;0.15;0.15;;;19.20;83.40;;;;;;6125613;23;20354;-87
2023/05/01 13:30:09;;;;;;;0.20;0.20;;;19.20;84.40;;;;;;6124504;23;20014;-86
2023/05/01 13:32:56;;;;;;;0.20;0.20;;;19.10;84.40;;;;;;6125717;23;20018;-84
2023/05/01 13:35:31;;;;;;;0.20;0.20;;;19.00;85.00;;;;;;6150109;23;20094;-85
2023/05/01 13:38:13;;;;;;;0.10;0.10;;;18.90;85.20;;;;;;6163010;23;20028;-85
2023/05/01 13:40:39;;;;;;;0.20;0.20;;;18.80;86.00;;;;;;6215535;23;20012;-84
2023/05/01 13:43:15;;;;;;;0.20;0.20;;;18.80;86.20;;;;;;6236480;23;20361;-84
2023/05/01 13:45:50;;;;;;;0.20;0.20;;;18.80;86.70;;;;;;6244725;23;20387;-86
2023/05/01 13:48:17;;;;;;;0.10;0.10;;;18.90;86.40;;;;;;6217732;23;20016;-84
2023/05/01 13:50:58;;;;;;;0.20;0.20;;;18.80;86.50;;;;;;6259308;23;20015;-87
2023/05/01 13:57:11;;;;;;;0.20;0.20;;;18.70;85.90;;;;;;6215304;23;20074;-86
2023/05/01 14:00:16;;;;;;;0.20;0.20;;;18.50;86.40;;;;;;6244352;23;20012;-86
2023/05/01 14:03:24;;;;;;;0.20;0.20;;;18.40;86.20;;;;;;6221430;23;20020;-89
2023/05/01 14:14:08;;;;;;;;;;;;;;;;;;;;;
2023/05/01 14:17:42;;;;;;;0.20;0.20;;;17.90;86.50;;;;;;6229009;22;20022;-86
2023/05/01 14:20:30;;;;;;;0.10;0.10;;;17.80;86.90;;;;;;6247839;22;20015;-85
2023/05/01 14:23:03;;;;;;;0.20;0.20;;;17.50;86.70;;;;;;6247275;22;20026;-84
2023/05/01 14:25:47;;;;;;;0.20;0.20;;;17.60;86.50;;;;;;6272649;22;20018;-87
2023/05/01 14:28:16;;;;;;;0.20;0.20;;;17.50;86.40;;;;;;6245904;22;20024;-87
2023/05/01 14:40:39;;;;;;;0.20;0.20;;;17.10;87.30;;;;;;6272678;22;20074;-86
2023/05/01 15:00:24;;;;;;;0.17;0.17;;;17.00;87.20;;;;;;6155610;23;20017;-86
2023/05/01 15:03:14;;;;;;;0.20;0.20;;;16.90;86.80;;;;;;6175775;23;20453;-85
2023/05/01 15:05:44;;;;;;;0.20;0.20;;;16.80;86.70;;;;;;6156585;23;20017;-85
2023/05/01 15:08:10;;;;;;;0.20;0.20;;;16.80;87.70;;;;;;6184721;23;20032;-86
2023/05/01 15:10:37;;;;;;;0.10;0.10;;;16.80;88.30;;;;;;6157210;23;20240;-87
2023/05/01 15:13:27;;;;;;;0.20;0.20;;;16.80;88.50;;;;;;6194610;22;20089;-83
2023/05/01 15:23:44;;;;;;;0.10;0.10;;;16.80;89.60;;;;;;6275252;22;20046;-83
2023/05/01 15:26:36;;;;;;;0.20;0.20;;;16.80;90.10;;;;;;6268653;22;20168;-83
2023/05/01 15:33:00;;;;;;;0.10;0.10;;;16.30;90.50;;;;;;6122458;23;20098;-86
2023/05/01 15:35:51;;;;;;;0.10;0.10;;;16.80;90.70;;;;;;6140468;23;20350;-86
2023/05/01 15:41:23;;;;;;;0.17;0.17;;;16.20;91.10;;;;;;6268085;22;20020;-88
2023/05/01 15:46:51;;;;;;;0.20;0.20;;;16.70;91.70;;;;;;6267699;22;20034;-87
2023/05/01 15:49:50;;;;;;;0.10;0.10;;;16.90;91.90;;;;;;6278091;22;20494;-85
2023/05/01 15:52:15;;;;;;;0.10;0.10;;;16.70;92.00;;;;;;6167340;22;20701;-85
2023/05/01 15:55:06;;;;;;;0.10;0.10;;;16.70;92.00;;;;;;6249864;22;20016;-88
2023/05/01 15:57:50;;;;;;;0.15;0.15;;;16.60;92.20;;;;;;6248814;22;20023;-87
2023/05/01 16:00:17;;;;;;;0.20;0.20;;;17.00;92.80;;;;;;6273932;22;20509;-86
2023/05/01 16:08:05;;;;;;;0.20;0.20;;;17.60;92.00;;;;;;6254492;22;20028;-75
2023/05/01 17:12:22;;;;;;;0.10;0.10;;;17.50;88.90;;;;;;6255205;22;20087;-78
2023/05/01 17:14:52;;;;;;;0.10;0.10;;;17.50;89.50;;;;;;6262329;23;20352;-77
2023/05/01 18:59:10;;;;;;;0.20;0.20;;;12.40;96.40;;;;;;6117782;23;20062;-79
2023/05/01 19:41:02;;;;;;;0.20;0.20;;;12.40;99.60;;;;;;6266921;22;20102;-79
2023/05/01 20:18:55;;;;;;;0.20;0.20;;;12.30;99.90;;;;;;6062291;23;20021;-80
2023/05/01 20:35:46;;;;;;;0.10;0.10;;;12.20;99.90;;;;;;6045554;23;20122;-78
2023/05/01 20:41:49;;;;;;;0.20;0.20;;;12.10;99.90;;;;;;6008107;23;20413;-78
2023/05/01 20:44:31;;;;;;;0.10;0.10;;;12.00;99.90;;;;;;6031860;23;20316;-78
2023/05/01 20:46:59;;;;;;;;;;;12.10;99.90;;;;;;6008234;23;20403;-78
2023/05/01 20:52:31;;;;;;;0.13;0.13;;;12.00;99.90;;;;;;6204651;22;20024;-78
2023/05/01 20:55:07;;;;;;;0.10;0.10;;;12.00;99.90;;;;;;6209321;23;20091;-77
2023/05/01 20:57:48;;;;;;;0.10;0.10;;;12.00;99.90;;;;;;6185112;23;20017;-78
2023/05/01 21:03:29;;;;;;;0.10;0.10;;;11.60;99.90;;;;;;6184964;23;20052;-78
2023/05/01 21:06:14;;;;;;;0.17;0.17;;;11.90;99.90;;;;;;6212206;23;20095;-78
2023/05/01 21:12:53;;;;;;;0.15;0.15;;;11.90;99.90;;;;;;6094434;23;20021;-90
2023/05/01 21:15:18;;;;;;;;;;;11.80;99.90;;;;;;6072455;23;20033;-88
2023/05/01 21:17:59;;;;;;;0.20;0.20;;;11.90;99.90;;;;;;6068228;23;19928;-88
2023/05/01 21:20:32;;;;;;;0.20;0.20;;;12.00;99.90;;;;;;6068040;23;20026;-87
2023/05/01 21:23:00;;;;;;;0.13;0.13;;;12.00;99.90;;;;;;6066196;23;20014;-84
2023/05/01 21:26:07;;;;;;;0.10;0.10;;;11.70;99.90;;;;;;6091030;23;20025;-84
2023/05/01 21:28:37;;;;;;;0.20;0.20;;;12.20;99.90;;;;;;6066027;23;20030;-84
2023/05/01 21:31:12;;;;;;;0.10;0.10;;;11.90;99.90;;;;;;6066103;23;20140;-84
2023/05/01 21:33:53;;;;;;;0.10;0.10;;;11.90;99.90;;;;;;6067698;23;20441;-85
2023/05/01 21:36:41;;;;;;;0.13;0.13;;;11.80;99.90;;;;;;6067293;23;20018;-84